sensor_id;sensor_type;location;lat;lon;timestamp;pressure;altitude;pressure_sealevel;temperature;humidity
32324;BME280;25666;44.350;9.222;2023-05-10T00:01:07;101151.13;;;17.31;100.00
32324;BME280;25666;44.350;9.222;2023-05-10T00:03:35;101148.44;;;17.45;100.00
32324;BME280;25666;44.350;9.222;2023-05-10T00:06:01;101146.03;;;17.44;100.00
32324;BME280;25666;44.350;9.222;2023-05-10T00:08:30;101148.41;;;17.42;100.00
32324;BME280;25666;44.350;9.222;2023-05-10T00:10:55;101135.88;;;17.36;100.00
32324;BME280;25666;44.350;9.222;2023-05-10T00:13:21;101141.09;;;17.34;100.00
32324;BME280;25666;44.350;9.222;2023-05-10T00:15:46;101137.91;;;17.35;100.00
32324;BME280;25666;44.350;9.222;2023-05-10T00:18:12;101129.88;;;17.37;100.00
32324;BME280;25666;44.350;9.222;2023-05-10T00:20:41;101127.16;;;17.44;100.00
32324;BME280;25666;44.350;9.222;2023-05-10T00:23:06;101123.41;;;17.33;100.00
32324;BME280;25666;44.350;9.222;2023-05-10T00:25:31;101125.66;;;17.17;100.00
32324;BME280;25666;44.350;9.222;2023-05-10T00:27:57;101116.91;;;17.26;100.00
32324;BME280;25666;44.350;9.222;2023-05-10T00:30:23;101110.97;;;17.34;100.00
32324;BME280;25666;44.350;9.222;2023-05-10T00:32:48;101112.16;;;17.33;100.00
32324;BME280;25666;44.350;9.222;2023-05-10T00:35:17;101108.47;;;17.29;100.00
32324;BME280;25666;44.350;9.222;2023-05-10T00:37:43;101100.06;;;17.33;100.00
32324;BME280;25666;44.350;9.222;2023-05-10T00:40:09;101094.06;;;17.34;100.00
32324;BME280;25666;44.350;9.222;2023-05-10T00:42:34;101092.53;;;17.40;100.00
32324;BME280;25666;44.350;9.222;2023-05-10T00:45:03;101091.31;;;17.38;100.00
32324;BME280;25666;44.350;9.222;2023-05-10T00:47:29;101092.13;;;17.38;100.00
32324;BME280;25666;44.350;9.222;2023-05-10T00:49:55;101089.63;;;17.33;100.00
32324;BME280;25666;44.350;9.222;2023-05-10T00:52:21;101077.13;;;17.27;100.00
32324;BME280;25666;44.350;9.222;2023-05-10T00:54:50;101079.22;;;17.37;100.00
32324;BME280;25666;44.350;9.222;2023-05-10T00:57:17;101081.81;;;17.12;100.00
32324;BME280;25666;44.350;9.222;2023-05-10T00:59:42;101072.59;;;17.16;100.00
32324;BME280;25666;44.350;9.222;2023-05-10T01:02:09;101071.78;;;17.15;100.00
32324;BME280;25666;44.350;9.222;2023-05-10T01:04:35;101072.22;;;17.21;100.00
32324;BME280;25666;44.350;9.222;2023-05-10T01:07:01;101064.09;;;17.08;100.00
32324;BME280;25666;44.350;9.222;2023-05-10T01:09:27;101061.38;;;17.19;100.00
32324;BME280;25666;44.350;9.222;2023-05-10T01:11:53;101060.38;;;16.97;100.00
32324;BME280;25666;44.350;9.222;2023-05-10T01:14:20;101061.63;;;17.03;100.00
32324;BME280;25666;44.350;9.222;2023-05-10T01:16:47;101054.50;;;17.13;100.00
32324;BME280;25666;44.350;9.222;2023-05-10T01:19:20;101048.75;;;17.02;100.00
32324;BME280;25666;44.350;9.222;2023-05-10T01:33:55;101044.06;;;17.17;100.00
32324;BME280;25666;44.350;9.222;2023-05-10T01:43:45;101036.50;;;17.25;100.00
32324;BME280;25666;44.350;9.222;2023-05-10T01:46:23;101030.06;;;17.24;100.00
32324;BME280;25666;44.350;9.222;2023-05-10T01:48:52;101030.88;;;17.25;100.00
32324;BME280;25666;44.350;9.222;2023-05-10T01:51:24;101025.69;;;17.30;100.00
32324;BME280;25666;44.350;9.222;2023-05-10T01:53:54;101029.31;;;17.31;100.00
32324;BME280;25666;44.350;9.222;2023-05-10T01:56:25;101019.63;;;17.25;100.00
32324;BME280;25666;44.350;9.222;2023-05-10T01:58:51;101017.19;;;17.23;100.00
32324;BME280;25666;44.350;9.222;2023-05-10T02:01:19;101015.63;;;17.29;100.00
32324;BME280;25666;44.350;9.222;2023-05-10T02:03:46;101014.06;;;17.32;100.00
32324;BME280;25666;44.350;9.222;2023-05-10T02:06:14;101014.09;;;17.35;100.00
32324;BME280;25666;44.350;9.222;2023-05-10T02:08:40;101015.13;;;17.13;100.00
32324;BME280;25666;44.350;9.222;2023-05-10T02:11:06;101005.94;;;17.20;100.00
32324;BME280;25666;44.350;9.222;2023-05-10T02:13:34;101014.34;;;17.16;100.00
32324;BME280;25666;44.350;9.222;2023-05-10T02:16:01;101016.69;;;17.10;100.00
32324;BME280;25666;44.350;9.222;2023-05-10T02:18:29;101018.22;;;17.04;100.00
32324;BME280;25666;44.350;9.222;2023-05-10T02:20:57;101018.03;;;16.83;100.00
32324;BME280;25666;44.350;9.222;2023-05-10T02:23:24;101016.19;;;17.01;100.00
32324;BME280;25666;44.350;9.222;2023-05-10T02:25:51;101014.63;;;17.07;100.00
32324;BME280;25666;44.350;9.222;2023-05-10T02:28:21;101018.88;;;16.87;100.00
32324;BME280;25666;44.350;9.222;2023-05-10T02:30:48;101017.34;;;16.93;100.00
32324;BME280;25666;44.350;9.222;2023-05-10T02:33:15;101010.59;;;17.05;100.00
32324;BME280;25666;44.350;9.222;2023-05-10T02:35:41;101020.66;;;17.06;100.00
32324;BME280;25666;44.350;9.222;2023-05-10T02:38:08;101023.97;;;17.15;100.00
32324;BME280;25666;44.350;9.222;2023-05-10T02:40:35;101013.25;;;16.87;100.00
32324;BME280;25666;44.350;9.222;2023-05-10T02:43:02;101019.00;;;17.01;100.00
32324;BME280;25666;44.350;9.222;2023-05-10T02:45:31;101015.41;;;17.04;100.00
32324;BME280;25666;44.350;9.222;2023-05-10T02:47:58;101009.50;;;17.13;100.00
32324;BME280;25666;44.350;9.222;2023-05-10T02:50:26;101017.16;;;17.16;100.00
32324;BME280;25666;44.350;9.222;2023-05-10T02:52:56;101004.69;;;17.17;100.00
32324;BME280;25666;44.350;9.222;2023-05-10T02:55:26;101005.75;;;17.02;100.00
32324;BME280;25666;44.350;9.222;2023-05-10T02:58:00;101000.56;;;17.07;100.00
32324;BME280;25666;44.350;9.222;2023-05-10T03:00:26;100997.03;;;17.14;100.00
32324;BME280;25666;44.350;9.222;2023-05-10T03:02:52;100989.41;;;17.14;100.00
32324;BME280;25666;44.350;9.222;2023-05-10T03:05:18;100996.69;;;17.19;100.00
32324;BME280;25666;44.350;9.222;2023-05-10T03:07:44;100995.47;;;17.20;100.00
32324;BME280;25666;44.350;9.222;2023-05-10T03:10:10;100993.47;;;17.21;100.00
32324;BME280;25666;44.350;9.222;2023-05-10T03:13:44;100994.63;;;17.12;100.00
32324;BME280;25666;44.350;9.222;2023-05-10T03:15:59;100990.59;;;17.13;100.00
32324;BME280;25666;44.350;9.222;2023-05-10T03:18:37;100983.38;;;17.12;100.00
32324;BME280;25666;44.350;9.222;2023-05-10T03:21:07;100980.59;;;17.16;100.00
32324;BME280;25666;44.350;9.222;2023-05-10T03:24:07;100977.38;;;17.18;100.00
32324;BME280;25666;44.350;9.222;2023-05-10T03:26:34;100979.75;;;17.12;100.00
32324;BME280;25666;44.350;9.222;2023-05-10T03:29:10;100983.78;;;17.14;100.00
32324;BME280;25666;44.350;9.222;2023-05-10T03:31:38;100984.66;;;17.22;100.00
32324;BME280;25666;44.350;9.222;2023-05-10T03:34:04;100982.22;;;17.21;100.00
32324;BME280;25666;44.350;9.222;2023-05-10T03:36:29;100980.56;;;17.12;100.00
32324;BME280;25666;44.350;9.222;2023-05-10T03:38:55;100979.75;;;17.12;100.00
32324;BME280;25666;44.350;9.222;2023-05-10T03:41:21;100968.09;;;17.10;100.00
32324;BME280;25666;44.350;9.222;2023-05-10T03:43:46;100974.56;;;17.18;100.00
32324;BME280;25666;44.350;9.222;2023-05-10T03:46:12;100969.72;;;17.14;100.00
32324;BME280;25666;44.350;9.222;2023-05-10T03:48:38;100970.13;;;17.17;100.00
32324;BME280;25666;44.350;9.222;2023-05-10T03:51:04;100964.91;;;17.15;100.00
32324;BME280;25666;44.350;9.222;2023-05-10T03:53:30;100962.91;;;17.16;100.00
32324;BME280;25666;44.350;9.222;2023-05-10T03:55:55;100961.34;;;17.22;100.00
32324;BME280;25666;44.350;9.222;2023-05-10T03:58:21;100960.94;;;17.20;100.00
32324;BME280;25666;44.350;9.222;2023-05-10T04:00:47;100956.84;;;17.13;100.00
32324;BME280;25666;44.350;9.222;2023-05-10T04:03:13;100954.81;;;17.10;100.00
32324;BME280;25666;44.350;9.222;2023-05-10T04:05:39;100952.81;;;17.11;100.00
32324;BME280;25666;44.350;9.222;2023-05-10T04:08:05;100953.66;;;17.15;100.00
32324;BME280;25666;44.350;9.222;2023-05-10T04:10:31;100949.94;;;17.04;100.00
32324;BME280;25666;44.350;9.222;2023-05-10T04:12:57;100945.44;;;16.96;100.00
32324;BME280;25666;44.350;9.222;2023-05-10T04:15:22;100952.38;;;17.05;100.00
32324;BME280;25666;44.350;9.222;2023-05-10T04:17:48;100947.09;;;17.00;100.00
32324;BME280;25666;44.350;9.222;2023-05-10T04:20:14;100949.03;;;16.93;100.00
32324;BME280;25666;44.350;9.222;2023-05-10T04:22:39;100959.16;;;17.04;100.00
32324;BME280;25666;44.350;9.222;2023-05-10T04:25:06;100955.53;;;17.00;100.00
32324;BME280;25666;44.350;9.222;2023-05-10T04:27:32;100959.09;;;16.94;100.00
32324;BME280;25666;44.350;9.222;2023-05-10T04:29:57;100950.66;;;16.94;100.00
32324;BME280;25666;44.350;9.222;2023-05-10T04:32:23;100964.38;;;17.02;100.00
32324;BME280;25666;44.350;9.222;2023-05-10T04:34:48;100960.00;;;17.08;100.00
32324;BME280;25666;44.350;9.222;2023-05-10T04:37:14;100953.66;;;17.15;100.00
32324;BME280;25666;44.350;9.222;2023-05-10T04:39:39;100938.78;;;17.14;100.00
32324;BME280;25666;44.350;9.222;2023-05-10T04:42:05;100930.00;;;17.20;100.00
32324;BME280;25666;44.350;9.222;2023-05-10T04:44:33;100937.97;;;17.14;100.00
32324;BME280;25666;44.350;9.222;2023-05-10T04:46:59;100935.19;;;17.18;100.00
32324;BME280;25666;44.350;9.222;2023-05-10T04:49:25;100933.19;;;17.22;100.00
32324;BME280;25666;44.350;9.222;2023-05-10T04:51:50;100927.94;;;17.20;100.00
32324;BME280;25666;44.350;9.222;2023-05-10T04:54:16;100944.03;;;17.16;100.00
32324;BME280;25666;44.350;9.222;2023-05-10T04:56:41;100948.00;;;17.11;100.00
32324;BME280;25666;44.350;9.222;2023-05-10T04:59:07;100955.56;;;17.07;100.00
32324;BME280;25666;44.350;9.222;2023-05-10T05:01:32;100948.41;;;17.10;100.00
32324;BME280;25666;44.350;9.222;2023-05-10T05:03:58;100951.13;;;17.03;100.00
32324;BME280;25666;44.350;9.222;2023-05-10T05:06:24;100943.88;;;17.02;100.00
32324;BME280;25666;44.350;9.222;2023-05-10T05:08:50;100937.44;;;17.01;100.00
32324;BME280;25666;44.350;9.222;2023-05-10T05:11:17;100934.63;;;17.01;100.00
32324;BME280;25666;44.350;9.222;2023-05-10T05:13:42;100953.03;;;16.88;100.00
32324;BME280;25666;44.350;9.222;2023-05-10T05:16:08;100958.66;;;16.92;100.00
32324;BME280;25666;44.350;9.222;2023-05-10T05:18:33;100950.22;;;16.92;100.00
32324;BME280;25666;44.350;9.222;2023-05-10T05:20:59;100948.69;;;17.01;100.00
32324;BME280;25666;44.350;9.222;2023-05-10T05:23:24;100944.72;;;17.06;100.00
32324;BME280;25666;44.350;9.222;2023-05-10T05:25:53;100935.53;;;17.09;100.00
32324;BME280;25666;44.350;9.222;2023-05-10T05:28:19;100943.53;;;17.10;100.00
32324;BME280;25666;44.350;9.222;2023-05-10T05:30:45;100943.63;;;17.18;100.00
32324;BME280;25666;44.350;9.222;2023-05-10T05:33:11;100942.00;;;17.17;100.00
32324;BME280;25666;44.350;9.222;2023-05-10T05:35:38;100937.63;;;17.19;100.00
32324;BME280;25666;44.350;9.222;2023-05-10T05:38:03;100936.84;;;17.29;100.00
32324;BME280;25666;44.350;9.222;2023-05-10T05:40:29;100934.03;;;17.26;100.00
32324;BME280;25666;44.350;9.222;2023-05-10T05:42:54;100941.25;;;17.27;100.00
32324;BME280;25666;44.350;9.222;2023-05-10T05:45:20;100934.81;;;17.26;100.00
32324;BME280;25666;44.350;9.222;2023-05-10T05:47:46;100937.28;;;17.31;100.00
32324;BME280;25666;44.350;9.222;2023-05-10T05:50:12;100943.31;;;17.33;100.00
32324;BME280;25666;44.350;9.222;2023-05-10T05:52:37;100947.31;;;17.25;100.00
32324;BME280;25666;44.350;9.222;2023-05-10T05:55:03;100955.28;;;17.16;100.00
32324;BME280;25666;44.350;9.222;2023-05-10T05:57:29;100958.13;;;17.20;100.00
32324;BME280;25666;44.350;9.222;2023-05-10T05:59:55;100968.09;;;17.10;100.00
32324;BME280;25666;44.350;9.222;2023-05-10T06:02:21;100973.22;;;17.04;100.00
32324;BME280;25666;44.350;9.222;2023-05-10T06:04:46;100968.00;;;17.03;100.00
32324;BME280;25666;44.350;9.222;2023-05-10T06:07:12;100968.47;;;17.08;100.00
32324;BME280;25666;44.350;9.222;2023-05-10T06:09:37;100971.72;;;17.14;100.00
32324;BME280;25666;44.350;9.222;2023-05-10T06:12:03;100966.13;;;17.18;100.00
32324;BME280;25666;44.350;9.222;2023-05-10T06:14:28;100974.13;;;17.12;100.00
32324;BME280;25666;44.350;9.222;2023-05-10T06:16:53;100965.75;;;17.19;100.00
32324;BME280;25666;44.350;9.222;2023-05-10T06:19:19;100964.50;;;17.13;100.00
32324;BME280;25666;44.350;9.222;2023-05-10T06:21:45;100976.00;;;17.01;100.00
32324;BME280;25666;44.350;9.222;2023-05-10T06:24:10;100982.63;;;17.19;100.00
32324;BME280;25666;44.350;9.222;2023-05-10T06:26:35;100980.06;;;17.03;100.00
32324;BME280;25666;44.350;9.222;2023-05-10T06:29:01;100994.31;;;17.25;100.00
32324;BME280;25666;44.350;9.222;2023-05-10T06:31:26;101001.53;;;17.22;100.00
32324;BME280;25666;44.350;9.222;2023-05-10T06:33:52;100999.84;;;17.14;100.00
32324;BME280;25666;44.350;9.222;2023-05-10T06:36:18;100998.28;;;17.20;100.00
32324;BME280;25666;44.350;9.222;2023-05-10T06:38:43;100995.09;;;17.22;100.00
32324;BME280;25666;44.350;9.222;2023-05-10T06:41:09;100987.88;;;17.24;100.00
32324;BME280;25666;44.350;9.222;2023-05-10T06:43:34;100981.03;;;17.22;100.00
32324;BME280;25666;44.350;9.222;2023-05-10T06:46:00;100983.06;;;17.25;100.00
32324;BME280;25666;44.350;9.222;2023-05-10T06:48:25;100984.69;;;17.29;100.00
32324;BME280;25666;44.350;9.222;2023-05-10T06:50:51;100970.13;;;17.17;100.00
32324;BME280;25666;44.350;9.222;2023-05-10T06:53:16;100964.91;;;17.15;100.00
32324;BME280;25666;44.350;9.222;2023-05-10T06:55:42;100964.53;;;17.20;100.00
32324;BME280;25666;44.350;9.222;2023-05-10T06:58:07;100959.38;;;17.29;100.00
32324;BME280;25666;44.350;9.222;2023-05-10T07:00:33;100955.78;;;17.29;100.00
32324;BME280;25666;44.350;9.222;2023-05-10T07:02:58;100957.81;;;17.39;100.00
32324;BME280;25666;44.350;9.222;2023-05-10T07:05:24;100955.03;;;17.35;100.00
32324;BME280;25666;44.350;9.222;2023-05-10T07:07:49;100967.13;;;17.43;100.00
32324;BME280;25666;44.350;9.222;2023-05-10T07:10:15;100961.53;;;17.50;100.00
32324;BME280;25666;44.350;9.222;2023-05-10T07:12:41;100958.28;;;17.48;100.00
32324;BME280;25666;44.350;9.222;2023-05-10T07:15:07;100957.50;;;17.47;100.00
32324;BME280;25666;44.350;9.222;2023-05-10T07:17:32;100961.50;;;17.46;100.00
32324;BME280;25666;44.350;9.222;2023-05-10T07:19:59;100964.72;;;17.48;100.00
32324;BME280;25666;44.350;9.222;2023-05-10T07:22:25;100960.34;;;17.51;100.00
32324;BME280;25666;44.350;9.222;2023-05-10T07:24:51;100963.91;;;17.44;100.00
32324;BME280;25666;44.350;9.222;2023-05-10T07:27:16;100968.31;;;17.38;100.00
32324;BME280;25666;44.350;9.222;2023-05-10T07:29:42;100965.03;;;17.33;100.00
32324;BME280;25666;44.350;9.222;2023-05-10T07:32:07;100970.75;;;17.43;100.00
32324;BME280;25666;44.350;9.222;2023-05-10T07:34:33;100970.34;;;17.48;100.00
32324;BME280;25666;44.350;9.222;2023-05-10T07:36:58;100967.06;;;17.36;100.00
32324;BME280;25666;44.350;9.222;2023-05-10T07:39:26;100975.81;;;17.24;100.00
32324;BME280;25666;44.350;9.222;2023-05-10T07:41:51;100974.72;;;17.35;100.00
32324;BME280;25666;44.350;9.222;2023-05-10T07:44:17;100971.75;;;17.18;100.00
32324;BME280;25666;44.350;9.222;2023-05-10T07:46:44;100982.09;;;17.06;100.00
32324;BME280;25666;44.350;9.222;2023-05-10T07:49:09;100978.22;;;17.22;100.00
32324;BME280;25666;44.350;9.222;2023-05-10T07:51:35;100971.47;;;17.33;100.00
32324;BME280;25666;44.350;9.222;2023-05-10T07:54:00;100968.34;;;17.45;100.00
32324;BME280;25666;44.350;9.222;2023-05-10T07:56:29;100970.34;;;17.48;100.00
32324;BME280;25666;44.350;9.222;2023-05-10T07:58:56;100964.75;;;17.52;100.00
32324;BME280;25666;44.350;9.222;2023-05-10T08:01:22;100959.94;;;17.52;100.00
32324;BME280;25666;44.350;9.222;2023-05-10T08:03:48;100959.13;;;17.52;100.00
32324;BME280;25666;44.350;9.222;2023-05-10T08:06:14;100957.59;;;17.58;100.00
32324;BME280;25666;44.350;9.222;2023-05-10T08:08:40;100951.78;;;17.37;100.00
32324;BME280;25666;44.350;9.222;2023-05-10T08:11:06;100943.38;;;17.40;100.00
32324;BME280;25666;44.350;9.222;2023-05-10T08:13:32;100933.31;;;17.39;100.00
32324;BME280;25666;44.350;9.222;2023-05-10T08:15:57;100938.25;;;17.53;100.00
32324;BME280;25666;44.350;9.222;2023-05-10T08:18:23;100934.19;;;17.47;100.00
32324;BME280;25666;44.350;9.222;2023-05-10T08:20:48;100926.75;;;17.18;100.00
32324;BME280;25666;44.350;9.222;2023-05-10T08:23:13;100909.22;;;17.38;100.00
32324;BME280;25666;44.350;9.222;2023-05-10T08:25:39;100914.50;;;17.50;100.00
32324;BME280;25666;44.350;9.222;2023-05-10T08:28:05;100908.09;;;17.53;100.00
32324;BME280;25666;44.350;9.222;2023-05-10T08:30:30;100922.44;;;17.34;100.00
32324;BME280;25666;44.350;9.222;2023-05-10T08:32:55;100917.97;;;17.30;100.00
32324;BME280;25666;44.350;9.222;2023-05-10T08:35:21;100915.16;;;17.30;100.00
32324;BME280;25666;44.350;9.222;2023-05-10T08:37:46;100924.44;;;17.34;100.00
32324;BME280;25666;44.350;9.222;2023-05-10T08:40:12;100927.63;;;17.32;100.00
32324;BME280;25666;44.350;9.222;2023-05-10T08:42:42;100922.38;;;17.27;100.00
32324;BME280;25666;44.350;9.222;2023-05-10T08:45:09;100927.25;;;17.34;100.00
32324;BME280;25666;44.350;9.222;2023-05-10T08:47:37;100924.84;;;17.36;100.00
32324;BME280;25666;44.350;9.222;2023-05-10T08:50:03;100918.06;;;17.40;100.00
32324;BME280;25666;44.350;9.222;2023-05-10T08:52:30;100917.38;;;17.57;100.00
32324;BME280;25666;44.350;9.222;2023-05-10T08:54:58;100922.53;;;17.52;100.00
32324;BME280;25666;44.350;9.222;2023-05-10T08:57:23;100913.78;;;17.57;100.00
32324;BME280;25666;44.350;9.222;2023-05-10T08:59:49;100911.91;;;17.89;100.00
32324;BME280;25666;44.350;9.222;2023-05-10T09:02:14;100907.16;;;18.11;100.00
32324;BME280;25666;44.350;9.222;2023-05-10T09:04:40;100921.19;;;17.93;100.00
32324;BME280;25666;44.350;9.222;2023-05-10T09:07:07;100919.63;;;18.03;100.00
32324;BME280;25666;44.350;9.222;2023-05-10T09:09:33;100911.22;;;18.13;100.00
32324;BME280;25666;44.350;9.222;2023-05-10T09:11:59;100927.41;;;18.45;100.00
32324;BME280;25666;44.350;9.222;2023-05-10T09:14:25;100899.28;;;18.73;100.00
32324;BME280;25666;44.350;9.222;2023-05-10T09:16:50;100911.34;;;19.12;100.00
32324;BME280;25666;44.350;9.222;2023-05-10T09:19:16;100918.59;;;19.20;100.00
32324;BME280;25666;44.350;9.222;2023-05-10T09:21:43;100923.44;;;19.20;100.00
32324;BME280;25666;44.350;9.222;2023-05-10T09:24:08;100927.03;;;19.20;100.00
32324;BME280;25666;44.350;9.222;2023-05-10T09:26:35;100934.31;;;19.25;100.00
32324;BME280;25666;44.350;9.222;2023-05-10T09:29:01;100950.03;;;19.33;100.00
32324;BME280;25666;44.350;9.222;2023-05-10T09:34:08;100941.59;;;19.40;100.00
32324;BME280;25666;44.350;9.222;2023-05-10T09:36:34;100943.59;;;19.50;100.00
32324;BME280;25666;44.350;9.222;2023-05-10T09:38:59;100939.16;;;19.42;100.00
32324;BME280;25666;44.350;9.222;2023-05-10T09:41:25;100942.25;;;19.97;100.00
32324;BME280;25666;44.350;9.222;2023-05-10T09:43:55;100951.75;;;20.42;100.00
32324;BME280;25666;44.350;9.222;2023-05-10T09:46:20;100955.81;;;20.38;100.00
32324;BME280;25666;44.350;9.222;2023-05-10T09:48:47;100950.53;;;20.43;100.00
32324;BME280;25666;44.350;9.222;2023-05-10T09:51:23;100946.19;;;20.17;100.00
32324;BME280;25666;44.350;9.222;2023-05-10T09:54:14;100943.72;;;20.30;100.00
32324;BME280;25666;44.350;9.222;2023-05-10T09:56:40;100945.06;;;20.01;100.00
32324;BME280;25666;44.350;9.222;2023-05-10T09:59:09;100936.97;;;19.99;100.00
32324;BME280;25666;44.350;9.222;2023-05-10T10:01:35;100927.16;;;20.32;100.00
32324;BME280;25666;44.350;9.222;2023-05-10T10:04:05;100922.63;;;20.49;100.00
32324;BME280;25666;44.350;9.222;2023-05-10T10:06:38;100914.22;;;20.35;100.00
32324;BME280;25666;44.350;9.222;2023-05-10T10:09:04;100910.91;;;20.47;100.00
32324;BME280;25666;44.350;9.222;2023-05-10T10:11:30;100912.19;;;20.42;100.00
32324;BME280;25666;44.350;9.222;2023-05-10T10:13:56;100923.16;;;20.22;100.00
32324;BME280;25666;44.350;9.222;2023-05-10T10:16:22;100924.31;;;20.39;100.00
32324;BME280;25666;44.350;9.222;2023-05-10T10:18:48;100916.09;;;20.55;100.00
32324;BME280;25666;44.350;9.222;2023-05-10T10:21:14;100923.75;;;20.62;100.00
32324;BME280;25666;44.350;9.222;2023-05-10T10:23:40;100923.16;;;20.29;100.00
32324;BME280;25666;44.350;9.222;2023-05-10T10:26:06;100911.84;;;20.29;100.00
32324;BME280;25666;44.350;9.222;2023-05-10T10:31:23;100902.25;;;19.99;100.00
32324;BME280;25666;44.350;9.222;2023-05-10T10:33:59;100903.78;;;20.17;100.00
32324;BME280;25666;44.350;9.222;2023-05-10T10:36:26;100905.50;;;20.04;100.00
32324;BME280;25666;44.350;9.222;2023-05-10T10:38:58;100907.41;;;20.21;100.00
32324;BME280;25666;44.350;9.222;2023-05-10T10:41:32;100913.44;;;20.30;100.00
32324;BME280;25666;44.350;9.222;2023-05-10T10:49:51;100911.81;;;20.33;100.00
32324;BME280;25666;44.350;9.222;2023-05-10T10:52:31;100904.19;;;20.26;100.00
32324;BME280;25666;44.350;9.222;2023-05-10T10:57:54;100902.69;;;19.94;100.00
32324;BME280;25666;44.350;9.222;2023-05-10T11:00:26;100899.88;;;19.94;100.00
32324;BME280;25666;44.350;9.222;2023-05-10T11:02:57;100897.06;;;19.87;100.00
32324;BME280;25666;44.350;9.222;2023-05-10T11:07:55;100916.00;;;19.93;100.00
32324;BME280;25666;44.350;9.222;2023-05-10T11:10:22;100897.00;;;20.04;100.00
32324;BME280;25666;44.350;9.222;2023-05-10T11:15:37;100891.13;;;20.47;100.00
32324;BME280;25666;44.350;9.222;2023-05-10T11:18:27;100900.41;;;20.47;100.00
32324;BME280;25666;44.350;9.222;2023-05-10T11:21:01;100892.06;;;20.29;100.00
32324;BME280;25666;44.350;9.222;2023-05-10T11:23:53;100899.72;;;20.22;100.00
32324;BME280;25666;44.350;9.222;2023-05-10T11:26:25;100898.19;;;20.07;100.00
32324;BME280;25666;44.350;9.222;2023-05-10T11:28:53;100888.06;;;20.13;100.00
32324;BME280;25666;44.350;9.222;2023-05-10T11:31:23;100890.84;;;20.23;100.00
32324;BME280;25666;44.350;9.222;2023-05-10T11:33:54;100899.25;;;20.38;100.00
32324;BME280;25666;44.350;9.222;2023-05-10T11:36:25;100898.91;;;20.32;100.00
32324;BME280;25666;44.350;9.222;2023-05-10T11:38:51;100900.06;;;20.38;100.00
32324;BME280;25666;44.350;9.222;2023-05-10T11:41:19;100907.03;;;20.26;100.00
32324;BME280;25666;44.350;9.222;2023-05-10T11:43:49;100912.72;;;20.09;100.00
32324;BME280;25666;44.350;9.222;2023-05-10T11:46:18;100907.91;;;19.99;100.00
32324;BME280;25666;44.350;9.222;2023-05-10T11:48:44;100921.19;;;20.05;100.00
32324;BME280;25666;44.350;9.222;2023-05-10T11:51:10;100907.16;;;19.91;100.00
32324;BME280;25666;44.350;9.222;2023-05-10T11:53:36;100915.63;;;19.88;100.00
32324;BME280;25666;44.350;9.222;2023-05-10T11:56:07;100912.03;;;19.80;100.00
32324;BME280;25666;44.350;9.222;2023-05-10T11:58:33;100907.16;;;19.84;100.00
32324;BME280;25666;44.350;9.222;2023-05-10T12:00:59;100917.25;;;19.92;100.00
32324;BME280;25666;44.350;9.222;2023-05-10T12:03:26;100902.56;;;20.18;100.00
32324;BME280;25666;44.350;9.222;2023-05-10T12:05:51;100904.59;;;20.18;100.00
32324;BME280;25666;44.350;9.222;2023-05-10T12:08:21;100914.22;;;20.38;100.00
32324;BME280;25666;44.350;9.222;2023-05-10T12:10:47;100913.03;;;20.32;100.00
32324;BME280;25666;44.350;9.222;2023-05-10T12:13:14;100912.59;;;20.37;100.00
32324;BME280;25666;44.350;9.222;2023-05-10T12:15:40;100923.91;;;20.37;100.00
32324;BME280;25666;44.350;9.222;2023-05-10T12:18:11;100916.09;;;20.59;100.00
32324;BME280;25666;44.350;9.222;2023-05-10T12:20:37;100922.69;;;20.38;100.00
32324;BME280;25666;44.350;9.222;2023-05-10T12:23:03;100900.88;;;20.42;100.00
32324;BME280;25666;44.350;9.222;2023-05-10T12:25:33;100910.09;;;20.50;100.00
32324;BME280;25666;44.350;9.222;2023-05-10T12:28:08;100919.41;;;20.43;100.00
32324;BME280;25666;44.350;9.222;2023-05-10T12:30:35;100892.56;;;20.72;100.00
32324;BME280;25666;44.350;9.222;2023-05-10T12:35:30;100896.84;;;20.95;100.00
32324;BME280;25666;44.350;9.222;2023-05-10T12:37:55;100905.19;;;21.12;100.00
32324;BME280;25666;44.350;9.222;2023-05-10T12:40:21;100900.47;;;20.95;100.00
32324;BME280;25666;44.350;9.222;2023-05-10T12:42:46;100903.41;;;20.81;100.00
32324;BME280;25666;44.350;9.222;2023-05-10T12:45:12;100897.38;;;20.75;100.00
32324;BME280;25666;44.350;9.222;2023-05-10T12:47:38;100903.81;;;20.83;100.00
32324;BME280;25666;44.350;9.222;2023-05-10T12:50:04;100917.25;;;20.65;100.00
32324;BME280;25666;44.350;9.222;2023-05-10T12:52:31;100909.88;;;20.81;100.00
32324;BME280;25666;44.350;9.222;2023-05-10T12:54:59;100912.53;;;20.51;100.00
32324;BME280;25666;44.350;9.222;2023-05-10T12:57:25;100932.53;;;20.78;100.00
32324;BME280;25666;44.350;9.222;2023-05-10T12:59:52;100935.03;;;20.69;100.00
32324;BME280;25666;44.350;9.222;2023-05-10T13:02:17;100924.81;;;20.82;100.00
32324;BME280;25666;44.350;9.222;2023-05-10T13:04:44;100926.66;;;20.51;100.00
32324;BME280;25666;44.350;9.222;2023-05-10T13:07:11;100928.69;;;20.51;100.00
32324;BME280;25666;44.350;9.222;2023-05-10T13:09:37;100940.84;;;20.41;100.00
32324;BME280;25666;44.350;9.222;2023-05-10T13:12:04;100938.81;;;20.48;100.00
32324;BME280;25666;44.350;9.222;2023-05-10T13:14:29;100933.03;;;20.62;100.00
32324;BME280;25666;44.350;9.222;2023-05-10T13:16:55;100917.31;;;20.58;100.00
32324;BME280;25666;44.350;9.222;2023-05-10T13:19:20;100918.09;;;20.62;100.00
32324;BME280;25666;44.350;9.222;2023-05-10T13:21:46;100911.84;;;20.88;100.00